METAR Data
IDs: Format: Raw Decoded Include TAF

Data at: 1454 UTC 25 Jan 2020

METAR for:KDMW (Carroll Cnty Rgnl, MD, US)
Text:KDMW 251445Z AUTO 34003KT 10SM BKN012 OVC046 06/06 A2982 RMK AO2
Temperature: 6.0°C ( 43°F)
Dewpoint: 6.0°C ( 43°F) [RH = 100%]
Pressure (altimeter):29.82 inches Hg (1009.9 mb)
Winds:from the NNW (340 degrees) at 3 MPH (3 knots; 1.5 m/s)
Visibility:10 or more sm (16+ km)
Ceiling:1200 feet AGL
Clouds: broken clouds at 1200 feet AGL, overcast cloud deck at 4600 feet AGL
QC Flag:automated observation with no human augmentation